Time;durP1;ratioP1;P1;durP2;ratioP2;P2;SDS_P1;SDS_P2;PMS_P1;PMS_P2;Temp;Humidity;BMP_temperature;BMP_pressure;BME280_temperature;BME280_humidity;BME280_pressure;Samples;Min_cycle;Max_cycle;Signal;HPM_P1;HPM_P2
2021/12/12 00:00:57;;;;;;;46.30;24.92;;;;;;;0.54;77.08;93294.56;2064293;69;20160;-70
2021/12/12 00:03:40;;;;;;;55.40;25.67;;;;;;;0.53;77.72;93286.78;2064721;69;20137;-69
2021/12/12 00:06:16;;;;;;;48.17;24.90;;;;;;;0.19;78.08;93288.13;2064504;69;20153;-70
2021/12/12 00:08:45;;;;;;;59.38;25.50;;;;;;;0.09;78.63;93305.66;2064787;69;20145;-72
2021/12/12 00:11:15;;;;;;;53.05;25.02;;;;;;;0.26;78.46;93308.91;2064646;69;20140;-70
2021/12/12 00:13:47;;;;;;;44.42;23.70;;;;;;;0.41;77.60;93311.16;2064726;69;20256;-68
2021/12/12 00:16:13;;;;;;;45.05;24.08;;;;;;;0.13;77.99;93312.38;2064774;69;20129;-70
2021/12/12 00:18:39;;;;;;;42.40;23.27;;;;;;;0.14;78.67;93315.94;2064553;69;20148;-70
2021/12/12 00:21:07;;;;;;;39.13;22.77;;;;;;;0.35;77.61;93314.03;2064352;69;20152;-71
2021/12/12 00:23:33;;;;;;;45.65;24.08;;;;;;;0.37;77.45;93313.53;2064770;69;20175;-71
2021/12/12 00:25:59;;;;;;;50.53;24.85;;;;;;;-0.16;79.42;93330.72;2064171;69;20199;-72
2021/12/12 00:28:28;;;;;;;44.35;24.23;;;;;;;0.24;78.57;93331.59;2064132;69;20161;-72
2021/12/12 00:30:58;;;;;;;45.58;24.52;;;;;;;0.48;77.08;93332.72;2064408;69;20139;-72
2021/12/12 00:33:25;;;;;;;41.05;23.52;;;;;;;0.59;76.26;93334.53;2064759;69;20141;-70
2021/12/12 00:35:51;;;;;;;42.58;23.90;;;;;;;0.55;76.26;93336.88;2064587;69;20148;-73
2021/12/12 00:38:26;;;;;;;42.20;23.75;;;;;;;0.55;76.40;93345.19;2064748;69;20156;-72
2021/12/12 00:40:55;;;;;;;45.38;24.30;;;;;;;0.56;76.76;93339.13;2064643;69;20228;-73
2021/12/12 00:43:27;;;;;;;53.50;25.70;;;;;;;0.51;76.94;93345.53;2064706;69;20160;-71
2021/12/12 00:45:57;;;;;;;49.63;26.03;;;;;;;0.48;77.21;93346.56;2064385;69;20596;-69
2021/12/12 00:48:24;;;;;;;52.42;27.02;;;;;;;0.47;76.96;93354.13;2064718;69;20176;-70
2021/12/12 00:50:50;;;;;;;45.90;24.90;;;;;;;0.41;77.20;93350.72;2064179;69;20167;-70
2021/12/12 00:53:20;;;;;;;46.95;25.10;;;;;;;0.38;77.23;93353.81;2064235;69;20155;-69
2021/12/12 00:55:47;;;;;;;49.75;26.48;;;;;;;0.43;77.11;93361.25;2064781;69;20235;-69
2021/12/12 00:58:16;;;;;;;46.92;25.70;;;;;;;0.51;76.79;93362.16;2064648;69;20689;-72
2021/12/12 01:00:51;;;;;;;46.08;24.90;;;;;;;0.56;76.36;93366.84;2064696;69;20157;-69
2021/12/12 01:03:24;;;;;;;46.05;24.80;;;;;;;0.45;76.79;93370.53;2065026;69;20624;-70
2021/12/12 01:05:51;;;;;;;46.13;24.52;;;;;;;0.54;76.74;93372.16;2064741;69;20145;-69
2021/12/12 01:08:17;;;;;;;49.22;25.13;;;;;;;0.53;76.37;93354.03;2064736;69;20156;-73
2021/12/12 01:10:48;;;;;;;42.05;23.35;;;;;;;0.53;76.50;93367.88;2064470;69;20184;-73
2021/12/12 01:13:14;;;;;;;47.85;25.05;;;;;;;0.55;75.93;93370.91;2064887;69;20235;-71
2021/12/12 01:16:13;;;;;;;49.00;25.88;;;;;;;0.58;75.97;93372.59;2064803;69;20235;-70
2021/12/12 01:18:46;;;;;;;;;;;;;;;0.55;76.41;93378.44;2065001;69;20227;-74
2021/12/12 01:21:23;;;;;;;47.13;24.58;;;;;;;0.60;76.10;93386.69;2065010;69;20140;-73
2021/12/12 01:23:56;;;;;;;43.88;24.35;;;;;;;0.61;75.61;93373.56;2064780;69;20145;-68
2021/12/12 01:26:23;;;;;;;40.47;23.55;;;;;;;0.54;75.95;93385.25;2064715;69;20165;-71
2021/12/12 01:28:54;;;;;;;40.75;23.52;;;;;;;0.51;76.00;93381.53;2065007;69;20151;-71
2021/12/12 01:31:24;;;;;;;45.47;24.70;;;;;;;0.22;76.60;93377.69;2064791;69;20145;-72
2021/12/12 01:34:09;;;;;;;43.10;24.52;;;;;;;0.30;77.36;93378.59;2064729;69;20546;-69
2021/12/12 01:36:47;;;;;;;39.72;23.13;;;;;;;0.58;75.60;93372.59;2064614;69;20262;-73
2021/12/12 01:39:14;;;;;;;39.28;22.55;;;;;;;0.49;75.31;93373.00;2064805;69;20173;-71
2021/12/12 01:41:54;;;;;;;36.42;21.35;;;;;;;0.60;74.85;93367.28;2065197;69;20137;-73
2021/12/12 01:44:40;;;;;;;38.20;22.60;;;;;;;0.42;75.48;93370.84;2064936;69;20155;-74
2021/12/12 01:47:23;;;;;;;35.67;21.08;;;;;;;0.59;74.85;93379.63;2064649;69;20168;-72
2021/12/12 01:49:54;;;;;;;33.60;20.13;;;;;;;0.46;75.18;93376.84;2064922;69;20137;-71
2021/12/12 01:52:26;;;;;;;35.00;21.35;;;;;;;0.43;75.26;93375.13;2065012;69;20153;-72
2021/12/12 01:54:57;;;;;;;31.73;19.50;;;;;;;0.48;75.22;93377.03;2064959;69;20145;-73
2021/12/12 01:57:32;;;;;;;33.15;19.73;;;;;;;0.53;74.91;93383.78;2064989;69;20152;-70
2021/12/12 02:00:00;;;;;;;41.45;23.25;;;;;;;0.09;76.76;93388.72;2064572;69;20137;-69
2021/12/12 02:02:32;;;;;;;41.85;23.80;;;;;;;-0.17;78.26;93386.59;2064836;69;20245;-71
2021/12/12 02:05:04;;;;;;;45.08;24.45;;;;;;;0.22;77.07;93392.28;2065008;69;20213;-69
2021/12/12 02:07:34;;;;;;;41.70;23.92;;;;;;;0.38;76.13;93393.31;2064082;69;20211;-70
2021/12/12 02:10:06;;;;;;;38.17;21.98;;;;;;;0.45;75.40;93401.00;2064858;69;20136;-70
2021/12/12 02:12:36;;;;;;;41.83;23.25;;;;;;;0.41;75.73;93405.34;2065126;69;20161;-70
2021/12/12 02:15:02;;;;;;;33.80;22.23;;;;;;;0.42;75.50;93404.84;2064971;69;20207;-74
2021/12/12 02:17:37;;;;;;;38.25;22.88;;;;;;;0.43;75.65;93405.59;2064740;69;20286;-71
2021/12/12 02:20:20;;;;;;;36.97;21.83;;;;;;;0.46;75.31;93413.59;2064397;69;20157;-71
2021/12/12 02:36:19;;;;;;;28.10;17.20;;;;;;;0.53;75.00;93415.00;2064668;69;20523;-73
2021/12/12 02:38:47;;;;;;;26.20;16.33;;;;;;;0.53;74.92;93415.00;2064929;69;20152;-70
2021/12/12 02:41:16;;;;;;;28.45;16.83;;;;;;;0.59;74.64;93421.19;2064581;69;20344;-74
2021/12/12 02:43:55;;;;;;;34.75;21.10;;;;;;;0.04;77.07;93429.06;2064474;69;20157;-72
2021/12/12 02:46:27;;;;;;;38.10;24.13;;;;;;;0.20;76.74;93424.56;2064566;69;20232;-74
2021/12/12 02:49:03;;;;;;;35.78;22.27;;;;;;;0.49;75.24;93437.47;2064897;69;20770;-72
2021/12/12 02:51:29;;;;;;;38.65;22.00;;;;;;;0.44;75.48;93440.31;2065035;69;20520;-72
2021/12/12 02:53:58;;;;;;;38.35;22.38;;;;;;;0.39;75.44;93432.84;2065053;69;20187;-70
2021/12/12 02:56:36;;;;;;;38.83;22.13;;;;;;;0.26;75.70;93430.78;2065035;69;20156;-72
2021/12/12 02:59:06;;;;;;;37.33;21.75;;;;;;;0.32;76.35;93438.97;2064511;69;20174;-71
2021/12/12 03:01:41;;;;;;;37.17;22.40;;;;;;;0.13;76.36;93436.25;2065496;69;20283;-71
2021/12/12 03:04:07;;;;;;;38.25;22.25;;;;;;;0.23;76.32;93443.66;2065147;69;20145;-70
2021/12/12 03:06:35;;;;;;;36.38;21.08;;;;;;;0.36;75.59;93456.78;2064924;69;20633;-72
2021/12/12 03:09:10;;;;;;;37.17;21.65;;;;;;;0.46;75.33;93446.84;2065072;69;20630;-70
2021/12/12 03:11:37;;;;;;;37.10;20.67;;;;;;;0.52;75.10;93454.31;2065033;69;20229;-69
2021/12/12 03:14:03;;;;;;;33.72;20.85;;;;;;;0.47;74.90;93456.66;2065163;69;20181;-71
2021/12/12 03:16:30;;;;;;;36.63;21.60;;;;;;;0.41;75.38;93466.31;2064937;69;20165;-70
2021/12/12 03:18:56;;;;;;;36.85;20.85;;;;;;;0.48;74.87;93460.16;2065143;69;20298;-71
2021/12/12 03:21:32;;;;;;;35.45;21.45;;;;;;;0.34;75.79;93464.16;2064820;69;20291;-70
2021/12/12 03:24:14;;;;;;;36.88;21.65;;;;;;;0.39;75.44;93464.06;2064837;69;20145;-70
2021/12/12 03:26:43;;;;;;;36.97;21.67;;;;;;;0.38;75.21;93459.81;2064933;69;20596;-73
2021/12/12 03:29:09;;;;;;;34.97;20.63;;;;;;;0.43;74.86;93458.97;2064939;69;20198;-72
2021/12/12 03:31:42;;;;;;;37.33;22.27;;;;;;;0.29;75.37;93467.75;2064979;69;20133;-71
2021/12/12 03:34:10;;;;;;;;;;;;;;;0.34;75.48;93466.94;2064662;69;20141;-69
2021/12/12 03:36:37;;;;;;;37.65;21.13;;;;;;;0.32;75.08;93473.00;2064809;69;20045;-73
2021/12/12 03:39:11;;;;;;;37.55;21.45;;;;;;;0.08;76.11;93484.16;2065098;69;20163;-70
2021/12/12 03:41:40;;;;;;;33.97;20.73;;;;;;;0.29;75.28;93482.34;2064984;69;20145;-70
2021/12/12 03:44:11;;;;;;;33.92;20.42;;;;;;;0.15;74.97;93476.00;2064946;69;20623;-73
2021/12/12 03:46:37;;;;;;;36.10;21.30;;;;;;;0.28;74.58;93474.56;2065079;69;20141;-71
2021/12/12 03:49:05;;;;;;;34.85;21.17;;;;;;;0.18;74.63;93474.97;2064965;69;20234;-70
2021/12/12 03:51:32;;;;;;;39.30;22.45;;;;;;;0.10;75.02;93465.75;2064774;69;20151;-70
2021/12/12 03:53:58;;;;;;;35.53;21.35;;;;;;;0.05;74.96;93474.13;2065062;69;20149;-69
2021/12/12 03:56:24;;;;;;;34.72;20.35;;;;;;;0.12;74.75;93465.22;2064889;69;20153;-69
2021/12/12 03:58:50;;;;;;;34.28;20.95;;;;;;;0.04;74.48;93451.22;2065022;69;20144;-69
2021/12/12 04:01:21;;;;;;;34.88;21.52;;;;;;;-0.01;74.27;93465.88;2064336;69;20282;-72
2021/12/12 04:03:51;;;;;;;36.00;21.38;;;;;;;-0.03;74.27;93469.19;2064931;69;20152;-72
2021/12/12 04:06:23;;;;;;;32.15;19.75;;;;;;;-0.06;74.02;93469.47;2064784;69;20149;-73
2021/12/12 04:08:50;;;;;;;34.30;20.30;;;;;;;-0.24;74.91;93476.50;2064904;69;20152;-73
2021/12/12 04:11:25;;;;;;;35.35;20.27;;;;;;;-0.16;74.93;93477.41;2065022;69;20141;-73
2021/12/12 04:13:52;;;;;;;37.55;20.85;;;;;;;-0.32;75.69;93476.34;2064913;69;20156;-73
2021/12/12 04:16:19;;;;;;;33.75;19.15;;;;;;;-0.28;74.78;93479.53;2064825;69;20546;-71
2021/12/12 04:18:45;;;;;;;28.50;16.88;;;;;;;-0.32;74.31;93481.09;2064884;69;20165;-70
2021/12/12 04:21:12;;;;;;;28.98;16.08;;;;;;;-0.40;74.37;93480.97;2064767;69;20161;-70
2021/12/12 04:23:39;;;;;;;21.90;13.15;;;;;;;-0.35;73.46;93485.69;2064816;69;20534;-72
2021/12/12 04:26:33;;;;;;;14.30;9.05;;;;;;;-0.36;73.69;93484.19;2064851;69;20176;-70
2021/12/12 04:29:08;;;;;;;17.08;9.40;;;;;;;-0.40;73.54;93492.03;2064514;69;20149;-72
2021/12/12 04:31:37;;;;;;;20.00;12.00;;;;;;;-0.42;73.36;93485.50;2065374;69;20141;-71
2021/12/12 04:34:04;;;;;;;18.92;11.57;;;;;;;-0.47;73.81;93491.84;2065340;69;20156;-70
2021/12/12 04:36:40;;;;;;;16.73;10.43;;;;;;;-0.56;73.78;93487.41;2065211;69;20160;-72
2021/12/12 04:39:09;;;;;;;16.30;9.43;;;;;;;-0.62;73.56;93481.22;2065449;69;20592;-71
2021/12/12 04:41:34;;;;;;;18.05;10.52;;;;;;;-0.68;73.09;93477.78;2065309;69;20133;-72
2021/12/12 04:44:00;;;;;;;19.42;11.70;;;;;;;-0.64;73.54;93478.19;2065329;69;20216;-72
2021/12/12 04:46:37;;;;;;;23.42;13.30;;;;;;;-0.61;73.63;93475.16;2065368;69;20145;-71
2021/12/12 04:51:56;;;;;;;20.42;12.38;;;;;;;-0.84;73.14;93482.94;2065199;69;20149;-69
2021/12/12 04:54:24;;;;;;;18.08;11.15;;;;;;;-0.78;72.98;93480.88;2065391;69;20176;-70
2021/12/12 04:56:59;;;;;;;15.35;8.55;;;;;;;-0.78;73.28;93480.88;2065232;69;20141;-70
2021/12/12 04:59:53;;;;;;;9.65;5.88;;;;;;;-0.78;72.80;93485.63;2065307;69;20137;-70
2021/12/12 05:02:31;;;;;;;7.75;5.13;;;;;;;-0.89;72.93;93483.75;2064544;69;20260;-70
2021/12/12 05:05:03;;;;;;;5.28;2.72;;;;;;;-0.96;73.41;93497.38;2065181;69;20595;-71
2021/12/12 05:07:32;;;;;;;;;;;;;;;-0.88;72.75;93493.53;2065615;69;20141;-70
2021/12/12 05:10:04;;;;;;;19.80;11.55;;;;;;;-1.01;72.79;93498.94;2065289;69;20045;-71
2021/12/12 05:12:40;;;;;;;19.80;11.93;;;;;;;-1.21;74.55;93502.13;2064737;69;20152;-71
2021/12/12 05:15:13;;;;;;;21.27;12.60;;;;;;;-1.13;73.17;93508.59;2065292;69;20622;-71
2021/12/12 05:17:43;;;;;;;20.20;11.63;;;;;;;-1.15;72.50;93506.34;2065245;69;20141;-71
2021/12/12 05:20:39;;;;;;;21.83;12.85;;;;;;;-1.12;73.19;93518.38;2064638;69;20164;-70
2021/12/12 05:23:08;;;;;;;18.02;12.00;;;;;;;-1.19;72.33;93519.69;2065265;69;20603;-70
2021/12/12 05:26:12;;;;;;;25.15;13.73;;;;;;;-1.27;72.85;93518.75;2065349;69;20596;-73
2021/12/12 05:28:47;;;;;;;20.95;11.95;;;;;;;-1.32;72.64;93516.78;2062944;69;20157;-71
2021/12/12 05:31:14;;;;;;;17.00;10.82;;;;;;;-1.27;72.82;93524.28;2064630;69;20615;-73
2021/12/12 05:33:40;;;;;;;15.25;9.07;;;;;;;-1.18;73.58;93523.22;2065353;69;20152;-72
2021/12/12 05:36:11;;;;;;;13.10;7.90;;;;;;;-1.18;72.67;93528.75;2065118;69;20601;-71
2021/12/12 05:38:37;;;;;;;9.68;5.93;;;;;;;-1.38;72.22;93533.38;2065184;69;20527;-73
2021/12/12 05:41:04;;;;;;;9.30;5.80;;;;;;;-1.36;72.35;93530.88;2064980;69;20196;-71
2021/12/12 05:43:30;;;;;;;9.90;6.03;;;;;;;-1.31;71.87;93543.16;2065238;69;20172;-71
2021/12/12 05:45:56;;;;;;;8.27;5.03;;;;;;;-1.39;71.38;93542.19;2065223;69;20227;-70
2021/12/12 05:48:22;;;;;;;5.10;3.47;;;;;;;-1.32;72.00;93539.63;2065225;69;20145;-70
2021/12/12 05:50:50;;;;;;;5.70;3.00;;;;;;;-1.24;71.97;93544.59;2065104;69;20133;-71
2021/12/12 05:53:16;;;;;;;12.38;7.15;;;;;;;-1.56;72.99;93551.34;2065203;69;20622;-70
2021/12/12 05:55:44;;;;;;;16.10;9.40;;;;;;;-1.62;73.01;93552.63;2064524;69;20206;-71
2021/12/12 05:58:15;;;;;;;15.25;9.55;;;;;;;-1.61;73.25;93546.59;2065043;69;20542;-72
2021/12/12 06:00:49;;;;;;;18.73;10.10;;;;;;;-1.60;72.55;93558.41;2065287;69;20637;-70
2021/12/12 06:03:17;;;;;;;17.75;10.10;;;;;;;-1.57;72.33;93554.59;2065112;69;20228;-70
2021/12/12 06:05:43;;;;;;;15.02;9.60;;;;;;;-1.51;73.00;93546.28;2065077;69;20199;-70
2021/12/12 06:08:11;;;;;;;14.80;9.20;;;;;;;-1.46;72.28;93557.31;2065196;69;20149;-72
2021/12/12 06:10:38;;;;;;;14.85;7.63;;;;;;;-1.51;72.79;93563.63;2065315;69;20180;-73
2021/12/12 06:13:09;;;;;;;11.32;6.95;;;;;;;-1.63;71.92;93571.22;2065201;69;20187;-73
2021/12/12 06:15:35;;;;;;;8.50;4.85;;;;;;;-1.73;72.81;93569.28;2065102;69;20199;-72
2021/12/12 06:18:02;;;;;;;9.60;5.82;;;;;;;-2.00;74.56;93571.66;2065115;69;20592;-72
2021/12/12 06:20:28;;;;;;;8.23;4.93;;;;;;;-1.97;73.80;93569.88;2065069;69;20624;-69
2021/12/12 06:22:56;;;;;;;9.30;4.72;;;;;;;-1.67;73.24;93578.28;2065165;69;20145;-72
2021/12/12 06:25:22;;;;;;;9.52;4.45;;;;;;;-1.58;73.82;93583.50;2065137;69;20178;-73
2021/12/12 06:27:48;;;;;;;6.55;3.20;;;;;;;-1.40;73.32;93576.59;2065242;69;20153;-72
2021/12/12 06:30:19;;;;;;;8.00;2.90;;;;;;;-1.51;72.48;93582.97;2065126;69;20148;-70
2021/12/12 06:32:46;;;;;;;14.80;8.07;;;;;;;-2.05;73.97;93586.97;2065242;69;20133;-72
2021/12/12 06:35:12;;;;;;;13.65;7.03;;;;;;;-1.88;74.34;93589.69;2065039;69;20273;-73
2021/12/12 06:37:40;;;;;;;18.35;9.20;;;;;;;-1.74;72.44;93593.38;2064532;69;20156;-70
2021/12/12 06:40:08;;;;;;;24.67;11.82;;;;;;;-1.71;72.07;93608.16;2065055;69;20200;-70
2021/12/12 06:42:34;;;;;;;26.17;11.68;;;;;;;-1.78;71.91;93603.94;2065072;69;20206;-72
2021/12/12 06:45:00;;;;;;;19.60;9.85;;;;;;;-1.68;72.00;93601.63;2065102;69;20183;-70
2021/12/12 06:47:26;;;;;;;23.88;11.25;;;;;;;-1.73;71.47;93607.94;2065090;69;20156;-70
2021/12/12 06:49:52;;;;;;;26.42;12.77;;;;;;;-1.73;71.95;93608.66;2064987;69;20149;-73
2021/12/12 06:52:19;;;;;;;20.85;10.80;;;;;;;-1.78;71.81;93611.47;2065218;69;20477;-71
2021/12/12 06:54:47;;;;;;;18.83;8.88;;;;;;;-1.74;71.71;93618.22;2065076;69;20291;-72
2021/12/12 06:57:15;;;;;;;14.95;8.48;;;;;;;-1.89;72.27;93617.75;2065034;69;20305;-70
2021/12/12 06:59:43;;;;;;;15.93;7.72;;;;;;;-1.67;72.03;93620.44;2065029;69;20149;-70
2021/12/12 07:02:10;;;;;;;12.30;6.75;;;;;;;-1.76;71.89;93619.97;2065045;69;20145;-73
2021/12/12 07:04:37;;;;;;;19.50;9.88;;;;;;;-2.02;71.89;93621.06;2065010;69;20519;-72
2021/12/12 07:07:05;;;;;;;15.48;8.75;;;;;;;-1.93;71.82;93634.59;2064934;69;20180;-71
2021/12/12 07:09:33;;;;;;;15.82;8.23;;;;;;;-1.98;71.22;93629.84;2065013;69;20144;-73
2021/12/12 07:12:03;;;;;;;15.18;8.98;;;;;;;-2.49;73.40;93643.00;2064450;69;20514;-74
2021/12/12 07:14:30;;;;;;;18.20;10.70;;;;;;;-2.22;73.80;93640.69;2065101;69;20236;-74
2021/12/12 07:16:56;;;;;;;18.92;11.27;;;;;;;-2.06;72.62;93646.19;2064492;69;20523;-73
2021/12/12 07:19:22;;;;;;;17.63;10.57;;;;;;;-2.13;72.26;93654.22;2065006;69;20595;-74
2021/12/12 07:21:49;;;;;;;17.73;10.25;;;;;;;-2.03;72.16;93652.69;2064905;69;20145;-71
2021/12/12 07:24:16;;;;;;;19.52;10.43;;;;;;;-1.97;71.73;93658.97;2065063;69;20583;-70
2021/12/12 07:26:42;;;;;;;24.52;13.45;;;;;;;-2.34;72.65;93667.53;2065122;69;20156;-70
2021/12/12 07:29:09;;;;;;;22.05;13.45;;;;;;;-2.11;72.56;93663.50;2065086;69;20153;-71
2021/12/12 07:31:37;;;;;;;19.23;11.18;;;;;;;-2.16;71.31;93661.50;2065191;69;20184;-71
2021/12/12 07:34:07;;;;;;;23.27;12.45;;;;;;;-2.20;71.26;93658.25;2064973;69;20667;-70
2021/12/12 07:36:36;;;;;;;25.30;12.57;;;;;;;-2.10;71.55;93664.25;2064849;69;20184;-70
2021/12/12 07:39:06;;;;;;;29.83;14.02;;;;;;;-2.12;71.67;93675.03;2065084;69;20148;-74
2021/12/12 07:41:33;;;;;;;26.13;12.20;;;;;;;-1.88;71.42;93674.47;2064974;69;20141;-74
2021/12/12 07:44:00;;;;;;;28.08;13.48;;;;;;;-2.02;71.53;93667.22;2064984;69;20145;-74
2021/12/12 07:46:28;;;;;;;80.30;27.48;;;;;;;-1.95;71.75;93664.72;2064921;69;20165;-73
2021/12/12 07:48:54;;;;;;;75.43;25.95;;;;;;;-2.06;71.72;93673.78;2064997;69;20164;-74
2021/12/12 07:51:22;;;;;;;44.97;19.27;;;;;;;-2.09;71.09;93679.53;2064903;69;20735;-75
2021/12/12 07:53:52;;;;;;;49.42;20.35;;;;;;;-2.28;71.54;93682.09;2064955;69;20234;-75
2021/12/12 07:56:24;;;;;;;50.17;22.42;;;;;;;-2.36;73.01;93684.59;2064866;69;20176;-72
2021/12/12 07:58:50;;;;;;;51.58;21.13;;;;;;;-2.19;72.02;93687.34;2064890;69;20145;-70
2021/12/12 08:01:17;;;;;;;45.47;19.27;;;;;;;-2.12;71.76;93694.34;2064874;69;20131;-73
2021/12/12 08:03:43;;;;;;;39.92;17.58;;;;;;;-2.04;72.12;93692.56;2065008;69;20180;-71
2021/12/12 08:06:13;;;;;;;36.80;16.27;;;;;;;-2.06;72.17;93693.09;2065357;69;20224;-71
2021/12/12 08:08:41;;;;;;;13.77;6.50;;;;;;;-1.87;71.59;93690.53;2065381;69;20141;-71
2021/12/12 08:11:08;;;;;;;10.95;5.10;;;;;;;-1.70;70.63;93693.22;2065394;69;20517;-71
2021/12/12 08:13:34;;;;;;;8.25;3.92;;;;;;;-1.61;70.52;93692.19;2064783;69;20164;-72
2021/12/12 08:16:03;;;;;;;8.95;4.25;;;;;;;-1.55;69.51;93696.44;2065428;69;20219;-69
2021/12/12 08:18:29;;;;;;;11.10;5.47;;;;;;;-1.70;69.13;93687.69;2065459;69;20250;-69
2021/12/12 08:20:56;;;;;;;11.48;5.63;;;;;;;-1.54;69.34;93689.66;2065318;69;20153;-71
2021/12/12 08:23:23;;;;;;;12.48;6.72;;;;;;;-1.74;69.02;93697.50;2065207;69;20546;-72
2021/12/12 08:25:51;;;;;;;16.08;7.97;;;;;;;-1.67;70.03;93694.97;2065253;69;20169;-72
2021/12/12 08:28:19;;;;;;;11.07;5.35;;;;;;;-1.54;69.37;93700.72;2065308;69;20657;-73
2021/12/12 08:30:46;;;;;;;10.23;5.10;;;;;;;-1.60;68.80;93702.75;2065312;69;20156;-71
2021/12/12 08:33:12;;;;;;;8.52;3.72;;;;;;;-1.47;69.38;93704.94;2065405;69;20145;-71
2021/12/12 08:35:39;;;;;;;7.28;3.42;;;;;;;-1.45;68.61;93704.44;2065235;69;20295;-71
2021/12/12 08:38:07;;;;;;;5.65;2.80;;;;;;;-1.23;69.12;93711.91;2065321;69;20191;-73
2021/12/12 08:40:38;;;;;;;7.28;3.20;;;;;;;-1.25;68.98;93717.16;2065280;69;20271;-71
2021/12/12 08:43:09;;;;;;;17.95;9.35;;;;;;;-1.50;69.22;93717.03;2062078;69;20133;-71
2021/12/12 08:45:41;;;;;;;20.40;10.57;;;;;;;-1.48;70.05;93714.50;2065446;69;20145;-72
2021/12/12 08:48:07;;;;;;;12.85;6.45;;;;;;;-1.29;69.01;93722.94;2065347;69;20149;-72
2021/12/12 08:50:37;;;;;;;22.60;9.93;;;;;;;-1.02;68.37;93729.59;2064685;69;20248;-70
2021/12/12 08:53:05;;;;;;;41.17;17.00;;;;;;;-0.72;69.09;93726.19;2065309;69;20145;-71
2021/12/12 08:55:37;;;;;;;51.47;19.70;;;;;;;-0.23;68.70;93731.84;2065354;69;20140;-71
2021/12/12 08:58:17;;;;;;;21.77;9.77;;;;;;;-0.05;67.44;93725.66;2065441;69;20165;-70
2021/12/12 09:00:52;;;;;;;13.55;6.55;;;;;;;0.30;67.18;93721.31;2065288;69;20161;-72
2021/12/12 09:03:27;;;;;;;7.60;3.70;;;;;;;0.47;65.01;93721.88;2065218;69;20141;-70
2021/12/12 09:05:53;;;;;;;8.13;4.38;;;;;;;0.70;64.59;93717.56;2065280;69;20163;-70
2021/12/12 09:08:31;;;;;;;7.90;3.80;;;;;;;0.92;62.13;93713.03;2065266;69;20244;-72
2021/12/12 09:11:04;;;;;;;10.68;5.70;;;;;;;1.34;61.91;93717.00;2065252;69;20213;-70
2021/12/12 09:13:37;;;;;;;6.72;3.80;;;;;;;1.56;61.18;93718.69;2065264;69;20141;-72
2021/12/12 09:16:24;;;;;;;5.47;2.95;;;;;;;1.68;58.67;93720.00;2064804;69;20211;-72
2021/12/12 09:19:07;;;;;;;8.45;4.35;;;;;;;1.52;57.07;93727.34;2065243;69;20147;-71
2021/12/12 09:21:51;;;;;;;10.50;5.82;;;;;;;1.74;59.23;93723.47;2064576;69;20156;-71
2021/12/12 09:24:44;;;;;;;29.83;14.35;;;;;;;1.74;59.54;93726.25;2065279;69;20141;-73
2021/12/12 09:27:23;;;;;;;34.35;15.85;;;;;;;2.40;58.99;93717.31;2065215;69;20144;-72
2021/12/12 09:30:20;;;;;;;15.80;8.82;;;;;;;2.83;58.96;93715.47;2065251;69;20149;-73
2021/12/12 09:32:59;;;;;;;16.33;8.45;;;;;;;2.98;58.33;93719.22;2064066;69;20141;-73
2021/12/12 09:35:33;;;;;;;11.63;6.65;;;;;;;3.25;57.77;93713.59;2065092;69;20214;-71
2021/12/12 09:38:03;;;;;;;11.02;6.43;;;;;;;3.48;58.00;93719.41;2065171;69;20169;-72
2021/12/12 09:41:00;;;;;;;9.35;4.40;;;;;;;3.59;57.18;93719.19;2065223;69;20153;-71
2021/12/12 09:43:44;;;;;;;4.60;3.22;;;;;;;4.02;55.08;93709.56;2065377;69;20137;-73
2021/12/12 09:46:39;;;;;;;6.60;4.38;;;;;;;4.34;55.34;93701.63;2065400;69;20145;-72
2021/12/12 09:52:22;;;;;;;22.30;11.48;;;;;;;4.01;55.39;93703.25;2065209;69;20164;-71
2021/12/12 09:55:06;;;;;;;35.05;18.38;;;;;;;4.20;54.43;93708.59;2065162;69;20149;-72
2021/12/12 09:57:32;;;;;;;24.30;12.50;;;;;;;4.56;54.08;93705.16;2065153;69;20133;-73
2021/12/12 10:00:15;;;;;;;15.95;8.73;;;;;;;4.55;54.99;93709.25;2065276;69;20566;-71
2021/12/12 10:02:41;;;;;;;10.20;6.28;;;;;;;5.07;54.09;93710.84;2065291;69;20141;-71
2021/12/12 10:05:09;;;;;;;24.00;13.80;;;;;;;5.20;52.64;93714.81;2065061;69;20129;-73
2021/12/12 10:07:41;;;;;;;12.57;7.82;;;;;;;5.60;52.63;93707.50;2065253;69;20144;-72
2021/12/12 10:10:21;;;;;;;6.60;4.03;;;;;;;5.91;51.12;93707.59;2065162;69;20149;-72
2021/12/12 10:12:58;;;;;;;48.67;24.10;;;;;;;6.06;51.22;93699.25;2065193;69;20147;-72
2021/12/12 10:15:27;;;;;;;75.35;36.33;;;;;;;6.64;50.94;93694.00;2065139;69;20188;-71
2021/12/12 10:17:59;;;;;;;5.05;3.15;;;;;;;6.60;49.38;93696.47;2064563;69;20228;-74
2021/12/12 10:20:34;;;;;;;4.90;3.13;;;;;;;6.48;50.02;93698.88;2065140;69;20133;-74
2021/12/12 10:23:15;;;;;;;4.68;2.60;;;;;;;6.48;50.24;93696.09;2065217;69;20304;-74
2021/12/12 10:26:03;;;;;;;7.07;3.10;;;;;;;7.00;46.52;93704.94;2065096;69;20571;-73
2021/12/12 10:28:37;;;;;;;7.22;3.40;;;;;;;6.87;46.91;93699.56;2064517;69;20182;-73
2021/12/12 10:31:24;;;;;;;4.85;2.95;;;;;;;6.60;46.89;93707.66;2065362;69;20314;-73
2021/12/12 10:33:55;;;;;;;6.65;3.97;;;;;;;7.98;45.85;93698.75;2065123;69;20143;-73
2021/12/12 10:36:59;;;;;;;16.30;8.43;;;;;;;7.88;46.60;93696.56;2065060;69;20587;-73
2021/12/12 10:39:48;;;;;;;12.50;7.45;;;;;;;7.77;45.40;93705.41;2065208;69;20133;-74
2021/12/12 10:42:15;;;;;;;8.70;5.57;;;;;;;8.03;44.85;93700.59;2065212;69;20149;-74
2021/12/12 10:44:57;;;;;;;8.57;5.90;;;;;;;9.28;44.23;93695.59;2065077;69;20166;-74
2021/12/12 10:47:46;;;;;;;8.48;5.20;;;;;;;9.93;43.64;93695.16;2064999;69;20141;-73
2021/12/12 10:51:02;;;;;;;5.00;3.42;;;;;;;10.40;41.54;93690.41;2064921;69;20672;-74
2021/12/12 10:53:59;;;;;;;5.18;3.55;;;;;;;11.98;40.38;93693.56;2050561;70;20221;-73
2021/12/12 10:56:45;;;;;;;4.15;3.30;;;;;;;12.22;38.88;93695.28;2050690;70;20154;-73
2021/12/12 10:59:19;;;;;;;4.57;3.15;;;;;;;13.79;35.47;93688.91;2045562;70;20147;-73
2021/12/12 11:01:48;;;;;;;4.80;3.33;;;;;;;15.08;33.34;93700.47;2046940;70;20237;-73
2021/12/12 11:04:21;;;;;;;3.05;2.50;;;;;;;13.43;32.80;93702.16;2046141;70;20281;-73
2021/12/12 11:06:56;;;;;;;8.38;5.60;;;;;;;11.05;35.58;93694.59;2050661;70;20218;-71
2021/12/12 11:09:30;;;;;;;7.75;5.30;;;;;;;9.06;38.06;93690.97;2050901;70;20150;-73
2021/12/12 11:12:10;;;;;;;5.45;4.28;;;;;;;8.82;38.64;93690.44;2050953;70;20151;-74
2021/12/12 11:14:57;;;;;;;9.73;7.45;;;;;;;8.76;38.41;93689.97;2050860;70;20138;-75
2021/12/12 11:17:34;;;;;;;8.73;5.88;;;;;;;7.90;40.93;93693.19;2048014;70;20664;-73
2021/12/12 11:20:15;;;;;;;9.75;6.93;;;;;;;7.13;42.02;93698.38;2047841;70;20754;-71
2021/12/12 11:22:46;;;;;;;14.50;8.82;;;;;;;6.94;43.48;93698.06;2050656;70;20161;-70
2021/12/12 11:25:30;;;;;;;13.38;9.52;;;;;;;6.15;44.37;93691.63;2050902;70;20158;-70
2021/12/12 11:28:21;;;;;;;17.50;9.20;;;;;;;6.42;43.77;93678.75;2052224;69;20173;-69
2021/12/12 11:30:59;;;;;;;11.95;7.70;;;;;;;5.49;45.77;93679.91;2060368;69;20215;-71
2021/12/12 11:33:27;;;;;;;15.60;9.57;;;;;;;5.14;46.70;93680.72;2061370;69;20599;-71
2021/12/12 11:35:55;;;;;;;20.00;11.45;;;;;;;4.53;47.14;93676.28;2060886;69;20141;-70
2021/12/12 11:38:35;;;;;;;18.15;10.30;;;;;;;4.20;48.06;93672.34;2061506;69;20160;-70
2021/12/12 11:41:12;;;;;;;19.40;10.63;;;;;;;4.47;48.25;93669.38;2061415;69;20173;-70
2021/12/12 11:43:41;;;;;;;18.65;10.55;;;;;;;4.10;49.72;93671.34;2061055;69;20148;-71
2021/12/12 11:46:17;;;;;;;19.17;10.23;;;;;;;4.32;48.36;93662.41;2061488;69;20121;-72
2021/12/12 11:49:11;;;;;;;18.63;10.05;;;;;;;4.30;48.92;93662.22;2061460;69;20183;-70
2021/12/12 11:51:43;;;;;;;21.27;12.38;;;;;;;3.56;52.17;93659.75;2061243;69;20146;-70
2021/12/12 11:54:51;;;;;;;24.50;13.38;;;;;;;3.25;51.18;93657.94;2061241;69;20133;-70
2021/12/12 11:57:24;;;;;;;23.90;13.80;;;;;;;3.65;51.91;93658.53;2061286;69;20145;-71
2021/12/12 12:00:05;;;;;;;28.50;15.13;;;;;;;3.96;51.11;93661.59;2060783;69;20153;-70
2021/12/12 12:02:51;;;;;;;25.45;14.98;;;;;;;4.82;51.02;93657.50;2060781;69;20242;-71
2021/12/12 12:05:43;;;;;;;27.65;15.52;;;;;;;4.86;49.98;93654.38;2067620;69;20151;-70
2021/12/12 12:08:11;;;;;;;26.05;14.73;;;;;;;5.20;49.96;93653.38;2064765;69;20224;-72
2021/12/12 12:11:01;;;;;;;24.48;14.60;;;;;;;5.19;49.76;93652.66;2068087;69;20171;-71